Delmar, Maryland
Current Conditions -  °F | °C
As of 1:54 PM on Thursday 23 Oct 2014 (Local Time) from KSBY Reporting Station
Overcast Overcast  
Wind Chill: 61°   Ceiling: 3100
Heat Index: 61°   Visibility: 10mi
Dew Point: 47°   Wind: 13mph
Humidity: 60%   Direction: 320°NW
Pressure: 29.79"   Gusts: 23mph
Location:  38.46°N, 75.58°W
Report Text: KSBY 231754Z 32011G20KT 10SM OVC031 16/08 A2979 RMK AO2 SLP088 60000 T01610083 10161 20128 58013
Loading
Personal Weather Stations






























Interactive Weather Map
Tropical Storm Tracking
New forecast layout! Learn more

10-Day Weather Forecast

Advertisements
Track Severe Weather on mobile